createdAt,value
2023-02-12T00:02:09.613Z,24.27
2023-02-12T00:07:11.431Z,23.77
2023-02-12T00:12:13.633Z,27.75
2023-02-12T00:17:15.634Z,26.60
2023-02-12T00:22:17.671Z,30.40
2023-02-12T00:27:19.731Z,33.85
2023-02-12T00:32:24.770Z,34.63
2023-02-12T00:37:26.788Z,28.15
2023-02-12T00:42:28.791Z,24.40
2023-02-12T00:47:31.152Z,29.33
2023-02-12T00:52:33.324Z,28.63
2023-02-12T00:57:35.476Z,30.77
2023-02-12T01:02:37.641Z,29.27
2023-02-12T01:07:41.888Z,29.88
2023-02-12T01:12:43.741Z,31.00
2023-02-12T01:17:46.303Z,25.80
2023-02-12T01:22:48.320Z,29.42
2023-02-12T01:27:54.120Z,22.45
2023-02-12T01:33:46.118Z,28.00
2023-02-12T01:38:48.261Z,32.38
2023-02-12T01:44:06.530Z,28.02
2023-02-12T01:49:42.844Z,24.75
2023-02-12T01:54:44.763Z,33.67
2023-02-12T01:59:50.670Z,29.25
2023-02-12T02:04:59.882Z,30.88
2023-02-12T02:10:04.021Z,32.33
2023-02-12T02:15:07.186Z,31.25
2023-02-12T02:20:48.298Z,29.35
2023-02-12T02:26:09.165Z,27.45
2023-02-12T02:31:40.045Z,28.98
2023-02-12T02:37:06.267Z,30.27
2023-02-12T02:42:40.518Z,27.70
2023-02-12T02:47:58.430Z,29.23
2023-02-12T02:53:06.600Z,25.98
2023-02-12T02:58:42.871Z,29.80
2023-02-12T03:03:52.353Z,27.17
2023-02-12T03:09:03.706Z,24.67
2023-02-12T03:14:18.300Z,31.05
2023-02-12T03:19:36.626Z,27.55
2023-02-12T03:24:54.084Z,23.15
2023-02-12T03:29:58.670Z,22.30
2023-02-12T03:35:22.803Z,18.75
2023-02-12T03:40:38.433Z,17.50
2023-02-12T03:46:01.328Z,26.38
2023-02-12T03:51:17.735Z,25.80
2023-02-12T03:56:26.271Z,27.92
2023-02-12T04:01:29.204Z,24.73
2023-02-12T04:06:31.544Z,27.88
2023-02-12T04:11:36.416Z,31.30
2023-02-12T04:16:48.330Z,24.40
2023-02-12T04:22:09.924Z,25.75
2023-02-12T04:27:26.521Z,26.48
2023-02-12T04:32:39.777Z,25.05
2023-02-12T04:38:19.865Z,19.25
2023-02-12T04:43:36.967Z,19.48
2023-02-12T04:48:59.354Z,28.43
2023-02-12T04:54:01.210Z,22.42
2023-02-12T04:59:03.317Z,24.98
2023-02-12T05:04:11.549Z,22.73
2023-02-12T05:09:19.027Z,28.02
2023-02-12T05:14:20.920Z,21.85
2023-02-12T05:19:22.719Z,21.40
2023-02-12T05:24:24.650Z,29.38
2023-02-12T05:29:26.596Z,33.33
2023-02-12T05:34:28.464Z,29.48
2023-02-12T05:39:30.376Z,27.10
2023-02-12T05:44:32.251Z,29.98
2023-02-12T05:49:34.675Z,30.35
2023-02-12T05:54:36.672Z,23.60
2023-02-12T05:59:39.507Z,30.33
2023-02-12T06:04:41.678Z,22.60
2023-02-12T06:09:43.510Z,26.42
2023-02-12T06:14:45.337Z,23.55
2023-02-12T06:19:56.077Z,22.20
2023-02-12T06:24:58.087Z,25.33
2023-02-12T06:30:00.134Z,23.33
2023-02-12T06:35:02.000Z,24.25
2023-02-12T06:40:07.293Z,21.30
2023-02-12T06:45:09.353Z,24.77
2023-02-12T06:50:11.689Z,37.40
2023-02-12T06:55:13.773Z,26.52
2023-02-12T07:00:16.144Z,31.85
2023-02-12T07:05:43.416Z,28.75
2023-02-12T07:10:50.141Z,30.33
2023-02-12T07:15:51.981Z,29.70
2023-02-12T07:21:19.725Z,31.77
2023-02-12T07:26:22.393Z,35.87
2023-02-12T07:31:24.834Z,29.30
2023-02-12T07:36:30.378Z,28.73
2023-02-12T07:41:35.582Z,30.75
2023-02-12T07:46:42.067Z,28.75
2023-02-12T07:51:43.952Z,29.27
2023-02-12T07:56:47.483Z,32.33
2023-02-12T08:01:51.566Z,27.30
2023-02-12T08:06:55.971Z,27.48
2023-02-12T08:11:59.077Z,27.08
2023-02-12T08:17:08.480Z,25.38
2023-02-12T08:22:10.240Z,22.70
2023-02-12T08:27:12.105Z,24.50
2023-02-12T08:32:14.786Z,25.40
2023-02-12T08:37:16.942Z,44.35
2023-02-12T08:42:44.806Z,25.17
2023-02-12T08:47:48.337Z,24.40
2023-02-12T08:52:50.375Z,22.52
2023-02-12T08:58:03.060Z,26.05
2023-02-12T09:03:06.689Z,23.98
2023-02-12T09:08:08.796Z,24.80
2023-02-12T09:13:13.341Z,23.73
2023-02-12T09:18:15.913Z,19.63
2023-02-12T09:23:17.847Z,22.10
2023-02-12T09:28:19.734Z,20.20
2023-02-12T09:33:23.077Z,15.48
2023-02-12T09:38:24.977Z,15.50
2023-02-12T09:43:53.173Z,16.05
2023-02-12T09:49:09.841Z,17.60
2023-02-12T09:54:17.649Z,21.70
2023-02-12T09:59:35.227Z,14.77
2023-02-12T10:04:37.214Z,12.55
2023-02-12T10:09:57.071Z,18.20
2023-02-12T10:15:27.615Z,12.27
2023-02-12T10:20:33.526Z,18.38
2023-02-12T10:25:45.113Z,19.50
2023-02-12T10:30:56.878Z,15.98
2023-02-12T10:36:23.361Z,17.52
2023-02-12T10:41:28.951Z,8.40
2023-02-12T10:46:32.247Z,12.02
2023-02-12T10:51:48.957Z,12.27
2023-02-12T10:56:51.598Z,8.65
2023-02-12T11:01:53.517Z,19.58
2023-02-12T11:07:08.984Z,11.25
2023-02-12T11:12:32.138Z,18.90
2023-02-12T11:17:36.110Z,20.00
2023-02-12T11:22:38.175Z,9.52
2023-02-12T11:27:39.968Z,21.95
2023-02-12T11:32:41.962Z,20.45
2023-02-12T11:37:46.422Z,14.13
2023-02-12T11:43:09.690Z,8.00
2023-02-12T11:48:22.826Z,15.43
2023-02-12T11:53:37.645Z,10.73
2023-02-12T11:58:40.369Z,10.10
2023-02-12T12:03:48.326Z,8.98
2023-02-12T12:14:08.271Z,7.70
2023-02-12T12:19:38.716Z,7.90
2023-02-12T12:25:06.931Z,10.30
2023-02-12T12:30:22.323Z,10.50
2023-02-12T12:35:37.695Z,8.75
2023-02-12T12:41:03.934Z,18.95
2023-02-12T12:46:24.459Z,11.95
2023-02-12T12:51:32.659Z,8.88
2023-02-12T12:56:46.682Z,11.43
2023-02-12T13:02:19.386Z,13.43
2023-02-12T13:08:18.607Z,9.98
2023-02-12T13:13:26.626Z,10.80
2023-02-12T13:18:33.283Z,8.43
2023-02-12T13:23:57.577Z,12.30
2023-02-12T13:29:13.024Z,8.32
2023-02-12T13:34:17.847Z,8.90
2023-02-12T13:39:34.114Z,8.68
2023-02-12T13:45:06.702Z,8.98
2023-02-12T13:50:46.112Z,13.25
2023-02-12T13:56:07.814Z,14.13
2023-02-12T14:01:36.506Z,6.88
2023-02-12T14:06:38.596Z,7.88
2023-02-12T14:11:53.402Z,6.55
2023-02-12T14:16:55.394Z,9.27
2023-02-12T14:21:57.185Z,9.85
2023-02-12T14:26:59.299Z,9.95
2023-02-12T14:32:01.302Z,6.70
2023-02-12T14:37:36.596Z,7.35
2023-02-12T14:42:42.418Z,9.75
2023-02-12T14:47:51.185Z,9.73
2023-02-12T14:53:05.328Z,10.90
2023-02-12T14:58:19.665Z,6.18
2023-02-12T15:03:28.021Z,5.65
2023-02-12T15:08:45.403Z,7.10
2023-02-12T15:13:55.216Z,8.97
2023-02-12T15:19:22.349Z,9.20
2023-02-12T15:24:26.657Z,7.90
2023-02-12T15:29:42.058Z,8.55
2023-02-12T15:34:48.061Z,9.40
2023-02-12T15:39:53.726Z,11.05
2023-02-12T15:45:10.423Z,10.88
2023-02-12T15:50:14.773Z,12.32
2023-02-12T15:55:23.237Z,11.18
2023-02-12T16:00:41.589Z,10.85
2023-02-12T16:05:43.809Z,12.23
2023-02-12T16:10:51.739Z,11.07
2023-02-12T16:21:19.503Z,13.63
2023-02-12T16:31:27.253Z,7.72
2023-02-12T16:36:32.129Z,9.45
2023-02-12T16:41:52.618Z,25.75
2023-02-12T16:46:59.683Z,13.98
2023-02-12T16:52:39.127Z,8.13
2023-02-12T16:57:41.142Z,10.50
2023-02-12T17:02:43.624Z,9.27
2023-02-12T17:07:47.013Z,8.13
2023-02-12T17:12:51.624Z,9.20
2023-02-12T17:23:11.726Z,8.15
2023-02-12T17:28:13.598Z,8.95
2023-02-12T17:33:16.776Z,7.03
2023-02-12T17:38:19.141Z,9.27
2023-02-12T17:43:21.375Z,10.68
2023-02-12T17:48:25.195Z,10.45
2023-02-12T17:53:32.760Z,12.77
2023-02-12T17:58:34.541Z,11.88
2023-02-12T18:03:36.857Z,9.25
2023-02-12T18:08:39.031Z,8.63
2023-02-12T18:13:42.655Z,11.00
2023-02-12T18:18:44.722Z,11.68
2023-02-12T18:23:47.061Z,9.90
2023-02-12T18:28:49.533Z,12.18
2023-02-12T18:33:51.893Z,13.23
2023-02-12T18:38:53.770Z,12.02
2023-02-12T18:43:58.154Z,16.65
2023-02-12T18:49:00.805Z,13.68
2023-02-12T18:54:07.429Z,12.80
2023-02-12T18:59:13.031Z,10.35
2023-02-12T19:04:16.290Z,15.63
2023-02-12T19:09:21.589Z,11.20
2023-02-12T19:14:24.699Z,14.25
2023-02-12T19:19:27.675Z,10.52
2023-02-12T19:24:44.399Z,11.45
2023-02-12T19:29:47.621Z,12.52
2023-02-12T19:34:49.352Z,10.45
2023-02-12T19:39:51.251Z,9.90
2023-02-12T19:44:53.337Z,12.98
2023-02-12T19:49:55.814Z,12.80
2023-02-12T19:54:58.722Z,13.43
2023-02-12T20:00:00.506Z,11.07
2023-02-12T20:05:02.451Z,12.32
2023-02-12T20:10:05.002Z,12.93
2023-02-12T20:15:07.471Z,12.50
2023-02-12T20:20:10.428Z,14.68
2023-02-12T20:25:12.458Z,13.88
2023-02-12T20:30:24.181Z,16.92
2023-02-12T20:35:26.044Z,16.23
2023-02-12T20:40:28.081Z,20.73
2023-02-12T20:45:29.915Z,13.45
2023-02-12T20:50:31.735Z,14.38
2023-02-12T20:55:33.974Z,15.10
2023-02-12T21:00:36.016Z,18.83
2023-02-12T21:05:38.031Z,14.05
2023-02-12T21:10:39.800Z,14.32
2023-02-12T21:15:41.950Z,15.95
2023-02-12T21:20:43.777Z,16.83
2023-02-12T21:25:45.785Z,12.63
2023-02-12T21:30:47.586Z,8.95
2023-02-12T21:35:49.394Z,10.27
2023-02-12T21:40:51.373Z,12.30
2023-02-12T21:45:53.209Z,12.80
2023-02-12T21:50:57.296Z,9.02
2023-02-12T21:56:05.649Z,9.48
2023-02-12T22:01:09.864Z,9.75
2023-02-12T22:06:14.034Z,11.23
2023-02-12T22:11:16.562Z,8.65
2023-02-12T22:16:24.611Z,12.25
2023-02-12T22:21:29.937Z,8.38
2023-02-12T22:26:32.567Z,10.82
2023-02-12T22:31:36.690Z,12.65
2023-02-12T22:36:39.642Z,8.35
2023-02-12T22:41:44.501Z,9.48
2023-02-12T22:46:46.298Z,9.13
2023-02-12T22:51:48.335Z,8.38
2023-02-12T22:56:52.023Z,9.80
2023-02-12T23:01:53.821Z,12.02
2023-02-12T23:07:04.427Z,9.38
2023-02-12T23:12:07.999Z,12.85
2023-02-12T23:17:09.831Z,14.30
2023-02-12T23:22:11.715Z,12.63
2023-02-12T23:27:13.740Z,12.35
2023-02-12T23:32:15.545Z,14.68
2023-02-12T23:37:17.480Z,12.60
2023-02-12T23:42:19.299Z,14.45
2023-02-12T23:47:21.169Z,14.25
2023-02-12T23:52:22.967Z,12.80
2023-02-12T23:57:25.083Z,14.95
